sensor_id;sensor_type;location;lat;lon;timestamp;P1;durP1;ratioP1;P2;durP2;ratioP2
47617;SDS011;33336;36.728;-4.414;2023-05-10T00:02:30;5.13;;;0.95;;
47617;SDS011;33336;36.728;-4.414;2023-05-10T00:07:34;5.10;;;0.80;;
47617;SDS011;33336;36.728;-4.414;2023-05-10T00:12:38;4.43;;;1.25;;
47617;SDS011;33336;36.728;-4.414;2023-05-10T00:17:41;5.07;;;0.80;;
47617;SDS011;33336;36.728;-4.414;2023-05-10T00:22:46;2.67;;;0.70;;
47617;SDS011;33336;36.728;-4.414;2023-05-10T00:27:49;2.60;;;0.70;;
47617;SDS011;33336;36.728;-4.414;2023-05-10T00:32:52;0.43;;;0.43;;
47617;SDS011;33336;36.728;-4.414;2023-05-10T00:37:57;2.95;;;0.80;;
47617;SDS011;33336;36.728;-4.414;2023-05-10T00:43:00;4.63;;;0.57;;
47617;SDS011;33336;36.728;-4.414;2023-05-10T00:48:03;2.15;;;0.82;;
47617;SDS011;33336;36.728;-4.414;2023-05-10T00:53:09;1.33;;;0.60;;
47617;SDS011;33336;36.728;-4.414;2023-05-10T00:58:12;2.53;;;0.70;;
47617;SDS011;33336;36.728;-4.414;2023-05-10T01:03:15;0.70;;;0.40;;
47617;SDS011;33336;36.728;-4.414;2023-05-10T01:08:20;3.70;;;0.70;;
47617;SDS011;33336;36.728;-4.414;2023-05-10T01:13:27;3.00;;;0.90;;
47617;SDS011;33336;36.728;-4.414;2023-05-10T01:18:35;1.08;;;0.88;;
47617;SDS011;33336;36.728;-4.414;2023-05-10T01:23:57;1.48;;;0.60;;
47617;SDS011;33336;36.728;-4.414;2023-05-10T01:29:35;1.90;;;0.70;;
47617;SDS011;33336;36.728;-4.414;2023-05-10T01:35:08;4.45;;;1.00;;
47617;SDS011;33336;36.728;-4.414;2023-05-10T01:40:19;5.20;;;1.10;;
47617;SDS011;33336;36.728;-4.414;2023-05-10T01:45:29;4.88;;;1.10;;
47617;SDS011;33336;36.728;-4.414;2023-05-10T01:50:41;2.97;;;0.90;;
47617;SDS011;33336;36.728;-4.414;2023-05-10T01:55:46;4.90;;;1.25;;
47617;SDS011;33336;36.728;-4.414;2023-05-10T02:00:51;4.78;;;1.08;;
47617;SDS011;33336;36.728;-4.414;2023-05-10T02:05:57;1.50;;;0.90;;
47617;SDS011;33336;36.728;-4.414;2023-05-10T02:11:01;4.60;;;1.00;;
47617;SDS011;33336;36.728;-4.414;2023-05-10T02:16:06;5.28;;;1.13;;
47617;SDS011;33336;36.728;-4.414;2023-05-10T02:21:12;1.98;;;1.20;;
47617;SDS011;33336;36.728;-4.414;2023-05-10T02:26:17;4.95;;;1.05;;
47617;SDS011;33336;36.728;-4.414;2023-05-10T02:31:23;6.30;;;1.25;;
47617;SDS011;33336;36.728;-4.414;2023-05-10T02:36:29;4.57;;;1.45;;
47617;SDS011;33336;36.728;-4.414;2023-05-10T02:41:32;2.60;;;1.25;;
47617;SDS011;33336;36.728;-4.414;2023-05-10T02:46:35;2.47;;;0.88;;
47617;SDS011;33336;36.728;-4.414;2023-05-10T02:51:41;1.30;;;0.60;;
47617;SDS011;33336;36.728;-4.414;2023-05-10T02:56:50;4.53;;;1.10;;
47617;SDS011;33336;36.728;-4.414;2023-05-10T03:01:58;1.35;;;0.60;;
47617;SDS011;33336;36.728;-4.414;2023-05-10T03:07:02;3.83;;;0.70;;
47617;SDS011;33336;36.728;-4.414;2023-05-10T03:12:07;2.13;;;1.00;;
47617;SDS011;33336;36.728;-4.414;2023-05-10T03:17:17;5.20;;;1.08;;
47617;SDS011;33336;36.728;-4.414;2023-05-10T03:22:26;6.97;;;0.95;;
47617;SDS011;33336;36.728;-4.414;2023-05-10T03:27:34;4.93;;;1.63;;
47617;SDS011;33336;36.728;-4.414;2023-05-10T03:32:38;3.28;;;0.93;;
47617;SDS011;33336;36.728;-4.414;2023-05-10T03:37:43;1.02;;;0.85;;
47617;SDS011;33336;36.728;-4.414;2023-05-10T03:42:46;2.63;;;0.65;;
47617;SDS011;33336;36.728;-4.414;2023-05-10T03:47:49;3.72;;;1.00;;
47617;SDS011;33336;36.728;-4.414;2023-05-10T03:52:54;1.90;;;0.82;;
47617;SDS011;33336;36.728;-4.414;2023-05-10T03:57:57;5.25;;;1.67;;
47617;SDS011;33336;36.728;-4.414;2023-05-10T04:03:00;27.10;;;5.80;;
47617;SDS011;33336;36.728;-4.414;2023-05-10T04:08:05;28.30;;;7.88;;
47617;SDS011;33336;36.728;-4.414;2023-05-10T04:13:08;27.77;;;7.03;;
47617;SDS011;33336;36.728;-4.414;2023-05-10T04:18:11;20.23;;;5.80;;
47617;SDS011;33336;36.728;-4.414;2023-05-10T04:23:16;21.45;;;6.07;;
47617;SDS011;33336;36.728;-4.414;2023-05-10T04:28:18;15.60;;;5.03;;
47617;SDS011;33336;36.728;-4.414;2023-05-10T04:33:22;14.55;;;5.97;;
47617;SDS011;33336;36.728;-4.414;2023-05-10T04:38:26;17.25;;;5.32;;
47617;SDS011;33336;36.728;-4.414;2023-05-10T04:43:30;17.67;;;5.72;;
47617;SDS011;33336;36.728;-4.414;2023-05-10T04:48:33;13.73;;;5.53;;
47617;SDS011;33336;36.728;-4.414;2023-05-10T04:53:37;12.93;;;5.68;;
47617;SDS011;33336;36.728;-4.414;2023-05-10T04:58:42;14.52;;;5.88;;
47617;SDS011;33336;36.728;-4.414;2023-05-10T05:03:45;13.18;;;6.45;;
47617;SDS011;33336;36.728;-4.414;2023-05-10T05:08:50;15.32;;;5.57;;
47617;SDS011;33336;36.728;-4.414;2023-05-10T05:13:53;17.42;;;5.45;;
47617;SDS011;33336;36.728;-4.414;2023-05-10T05:18:56;14.57;;;5.15;;
47617;SDS011;33336;36.728;-4.414;2023-05-10T05:24:01;18.23;;;5.82;;
47617;SDS011;33336;36.728;-4.414;2023-05-10T05:29:04;9.30;;;4.40;;
47617;SDS011;33336;36.728;-4.414;2023-05-10T05:34:07;14.50;;;5.80;;
47617;SDS011;33336;36.728;-4.414;2023-05-10T05:39:13;12.98;;;5.75;;
47617;SDS011;33336;36.728;-4.414;2023-05-10T05:44:16;11.77;;;4.82;;
47617;SDS011;33336;36.728;-4.414;2023-05-10T05:49:19;9.68;;;5.03;;
47617;SDS011;33336;36.728;-4.414;2023-05-10T05:54:23;12.07;;;5.10;;
47617;SDS011;33336;36.728;-4.414;2023-05-10T05:59:27;18.38;;;6.78;;
47617;SDS011;33336;36.728;-4.414;2023-05-10T06:04:30;19.73;;;5.38;;
47617;SDS011;33336;36.728;-4.414;2023-05-10T06:09:35;12.32;;;5.38;;
47617;SDS011;33336;36.728;-4.414;2023-05-10T06:14:37;17.35;;;5.13;;
47617;SDS011;33336;36.728;-4.414;2023-05-10T06:19:40;12.05;;;4.28;;
47617;SDS011;33336;36.728;-4.414;2023-05-10T06:24:44;14.25;;;4.80;;
47617;SDS011;33336;36.728;-4.414;2023-05-10T06:29:48;16.92;;;5.30;;
47617;SDS011;33336;36.728;-4.414;2023-05-10T06:34:51;9.77;;;4.13;;
47617;SDS011;33336;36.728;-4.414;2023-05-10T06:39:57;11.23;;;4.60;;
47617;SDS011;33336;36.728;-4.414;2023-05-10T06:44:59;13.27;;;5.20;;
47617;SDS011;33336;36.728;-4.414;2023-05-10T06:50:03;18.20;;;5.82;;
47617;SDS011;33336;36.728;-4.414;2023-05-10T06:55:08;14.63;;;5.15;;
47617;SDS011;33336;36.728;-4.414;2023-05-10T07:00:13;19.67;;;4.80;;
47617;SDS011;33336;36.728;-4.414;2023-05-10T07:05:16;15.75;;;5.53;;
47617;SDS011;33336;36.728;-4.414;2023-05-10T07:10:21;16.95;;;5.28;;
47617;SDS011;33336;36.728;-4.414;2023-05-10T07:15:23;15.88;;;5.57;;
47617;SDS011;33336;36.728;-4.414;2023-05-10T07:20:27;16.85;;;5.03;;
47617;SDS011;33336;36.728;-4.414;2023-05-10T07:25:31;17.52;;;5.68;;
47617;SDS011;33336;36.728;-4.414;2023-05-10T07:30:34;15.48;;;5.38;;
47617;SDS011;33336;36.728;-4.414;2023-05-10T07:35:37;9.23;;;4.47;;
47617;SDS011;33336;36.728;-4.414;2023-05-10T07:40:42;20.50;;;5.55;;
47617;SDS011;33336;36.728;-4.414;2023-05-10T07:45:46;46.80;;;8.82;;
47617;SDS011;33336;36.728;-4.414;2023-05-10T07:50:49;33.75;;;8.75;;
47617;SDS011;33336;36.728;-4.414;2023-05-10T07:55:54;21.02;;;5.53;;
47617;SDS011;33336;36.728;-4.414;2023-05-10T08:00:59;15.27;;;4.75;;
47617;SDS011;33336;36.728;-4.414;2023-05-10T08:06:02;14.40;;;4.20;;
47617;SDS011;33336;36.728;-4.414;2023-05-10T08:11:07;15.48;;;5.15;;
47617;SDS011;33336;36.728;-4.414;2023-05-10T08:16:09;16.55;;;4.43;;
47617;SDS011;33336;36.728;-4.414;2023-05-10T08:21:13;16.90;;;4.38;;
47617;SDS011;33336;36.728;-4.414;2023-05-10T08:26:18;11.38;;;2.65;;
47617;SDS011;33336;36.728;-4.414;2023-05-10T08:31:22;17.52;;;3.42;;
47617;SDS011;33336;36.728;-4.414;2023-05-10T08:36:25;10.80;;;2.80;;
47617;SDS011;33336;36.728;-4.414;2023-05-10T08:41:30;11.70;;;3.10;;
47617;SDS011;33336;36.728;-4.414;2023-05-10T08:46:37;10.73;;;3.47;;
47617;SDS011;33336;36.728;-4.414;2023-05-10T08:51:47;10.70;;;3.33;;
47617;SDS011;33336;36.728;-4.414;2023-05-10T08:56:55;21.73;;;4.55;;
47617;SDS011;33336;36.728;-4.414;2023-05-10T09:01:59;20.88;;;4.93;;
47617;SDS011;33336;36.728;-4.414;2023-05-10T09:07:03;18.02;;;3.72;;
47617;SDS011;33336;36.728;-4.414;2023-05-10T09:12:08;16.60;;;3.08;;
47617;SDS011;33336;36.728;-4.414;2023-05-10T09:17:12;18.52;;;3.70;;
47617;SDS011;33336;36.728;-4.414;2023-05-10T09:22:15;14.57;;;3.10;;
47617;SDS011;33336;36.728;-4.414;2023-05-10T09:27:27;17.52;;;4.72;;
47617;SDS011;33336;36.728;-4.414;2023-05-10T09:32:36;27.55;;;5.53;;
47617;SDS011;33336;36.728;-4.414;2023-05-10T09:37:40;24.45;;;5.18;;
47617;SDS011;33336;36.728;-4.414;2023-05-10T09:42:52;35.42;;;7.07;;
47617;SDS011;33336;36.728;-4.414;2023-05-10T09:47:56;17.65;;;4.25;;
47617;SDS011;33336;36.728;-4.414;2023-05-10T09:53:00;20.25;;;3.90;;
47617;SDS011;33336;36.728;-4.414;2023-05-10T09:58:05;15.10;;;3.33;;
47617;SDS011;33336;36.728;-4.414;2023-05-10T10:03:12;20.02;;;4.78;;
47617;SDS011;33336;36.728;-4.414;2023-05-10T10:08:16;20.60;;;4.78;;
47617;SDS011;33336;36.728;-4.414;2023-05-10T10:13:22;96.97;;;14.82;;
47617;SDS011;33336;36.728;-4.414;2023-05-10T10:18:24;75.63;;;11.48;;
47617;SDS011;33336;36.728;-4.414;2023-05-10T10:23:29;40.30;;;7.30;;
47617;SDS011;33336;36.728;-4.414;2023-05-10T10:28:34;26.58;;;6.30;;
47617;SDS011;33336;36.728;-4.414;2023-05-10T10:33:50;13.68;;;5.25;;
47617;SDS011;33336;36.728;-4.414;2023-05-10T10:38:59;18.15;;;5.35;;
47617;SDS011;33336;36.728;-4.414;2023-05-10T10:49:48;17.73;;;4.45;;
47617;SDS011;33336;36.728;-4.414;2023-05-10T10:54:52;10.25;;;2.95;;
47617;SDS011;33336;36.728;-4.414;2023-05-10T11:05:35;14.77;;;3.38;;
47617;SDS011;33336;36.728;-4.414;2023-05-10T11:10:48;18.55;;;4.18;;
47617;SDS011;33336;36.728;-4.414;2023-05-10T11:15:56;19.85;;;4.97;;
47617;SDS011;33336;36.728;-4.414;2023-05-10T11:21:00;14.82;;;3.55;;
47617;SDS011;33336;36.728;-4.414;2023-05-10T11:26:07;16.17;;;3.87;;
47617;SDS011;33336;36.728;-4.414;2023-05-10T11:31:14;10.93;;;3.25;;
47617;SDS011;33336;36.728;-4.414;2023-05-10T11:36:18;13.63;;;3.80;;
47617;SDS011;33336;36.728;-4.414;2023-05-10T11:41:22;13.73;;;3.15;;
47617;SDS011;33336;36.728;-4.414;2023-05-10T11:46:27;13.70;;;4.20;;
47617;SDS011;33336;36.728;-4.414;2023-05-10T11:51:33;18.98;;;4.47;;
47617;SDS011;33336;36.728;-4.414;2023-05-10T11:56:39;15.82;;;3.97;;
47617;SDS011;33336;36.728;-4.414;2023-05-10T12:01:43;11.23;;;3.17;;
47617;SDS011;33336;36.728;-4.414;2023-05-10T12:06:47;11.30;;;2.88;;
47617;SDS011;33336;36.728;-4.414;2023-05-10T12:11:50;9.77;;;3.22;;
47617;SDS011;33336;36.728;-4.414;2023-05-10T12:16:59;17.25;;;3.92;;
47617;SDS011;33336;36.728;-4.414;2023-05-10T12:22:04;10.68;;;3.60;;
47617;SDS011;33336;36.728;-4.414;2023-05-10T12:27:07;10.70;;;3.35;;
47617;SDS011;33336;36.728;-4.414;2023-05-10T12:32:12;6.53;;;2.90;;
47617;SDS011;33336;36.728;-4.414;2023-05-10T12:37:15;12.63;;;2.90;;
47617;SDS011;33336;36.728;-4.414;2023-05-10T12:42:17;7.93;;;2.30;;
47617;SDS011;33336;36.728;-4.414;2023-05-10T12:47:27;12.57;;;3.40;;
47617;SDS011;33336;36.728;-4.414;2023-05-10T12:52:30;10.95;;;2.88;;
47617;SDS011;33336;36.728;-4.414;2023-05-10T12:57:34;10.30;;;2.83;;
47617;SDS011;33336;36.728;-4.414;2023-05-10T13:02:38;8.25;;;2.17;;
47617;SDS011;33336;36.728;-4.414;2023-05-10T13:07:41;12.20;;;3.13;;
47617;SDS011;33336;36.728;-4.414;2023-05-10T13:12:45;52.30;;;15.77;;
47617;SDS011;33336;36.728;-4.414;2023-05-10T13:17:49;13.50;;;4.15;;
47617;SDS011;33336;36.728;-4.414;2023-05-10T13:22:53;7.70;;;2.20;;
47617;SDS011;33336;36.728;-4.414;2023-05-10T13:33:03;6.93;;;2.20;;
47617;SDS011;33336;36.728;-4.414;2023-05-10T13:38:05;5.35;;;1.60;;
47617;SDS011;33336;36.728;-4.414;2023-05-10T13:43:08;10.65;;;2.53;;
47617;SDS011;33336;36.728;-4.414;2023-05-10T13:48:13;8.38;;;2.38;;
47617;SDS011;33336;36.728;-4.414;2023-05-10T13:53:17;6.32;;;2.20;;
47617;SDS011;33336;36.728;-4.414;2023-05-10T13:58:20;5.38;;;1.63;;
47617;SDS011;33336;36.728;-4.414;2023-05-10T14:03:25;9.73;;;2.22;;
47617;SDS011;33336;36.728;-4.414;2023-05-10T14:08:28;11.43;;;2.55;;
47617;SDS011;33336;36.728;-4.414;2023-05-10T14:13:31;9.85;;;2.13;;
47617;SDS011;33336;36.728;-4.414;2023-05-10T14:18:35;10.20;;;2.17;;
47617;SDS011;33336;36.728;-4.414;2023-05-10T14:23:38;14.45;;;2.75;;
47617;SDS011;33336;36.728;-4.414;2023-05-10T14:28:42;9.13;;;1.85;;
47617;SDS011;33336;36.728;-4.414;2023-05-10T14:33:46;7.00;;;1.70;;
47617;SDS011;33336;36.728;-4.414;2023-05-10T14:38:49;7.80;;;2.83;;
47617;SDS011;33336;36.728;-4.414;2023-05-10T14:43:52;15.07;;;2.05;;
47617;SDS011;33336;36.728;-4.414;2023-05-10T14:48:56;7.43;;;1.65;;
47617;SDS011;33336;36.728;-4.414;2023-05-10T14:54:00;7.00;;;1.58;;
47617;SDS011;33336;36.728;-4.414;2023-05-10T14:59:03;8.02;;;1.48;;
47617;SDS011;33336;36.728;-4.414;2023-05-10T15:04:08;9.60;;;1.60;;
47617;SDS011;33336;36.728;-4.414;2023-05-10T15:09:12;11.52;;;1.33;;
47617;SDS011;33336;36.728;-4.414;2023-05-10T15:14:16;10.20;;;1.50;;
47617;SDS011;33336;36.728;-4.414;2023-05-10T15:19:21;7.72;;;1.45;;
47617;SDS011;33336;36.728;-4.414;2023-05-10T15:24:24;5.07;;;1.40;;
47617;SDS011;33336;36.728;-4.414;2023-05-10T15:29:28;6.10;;;1.50;;
47617;SDS011;33336;36.728;-4.414;2023-05-10T15:34:33;7.65;;;1.33;;
47617;SDS011;33336;36.728;-4.414;2023-05-10T15:39:37;7.63;;;1.30;;
47617;SDS011;33336;36.728;-4.414;2023-05-10T15:44:40;5.50;;;1.73;;
47617;SDS011;33336;36.728;-4.414;2023-05-10T15:49:47;3.15;;;1.05;;
47617;SDS011;33336;36.728;-4.414;2023-05-10T15:54:50;6.93;;;1.60;;
47617;SDS011;33336;36.728;-4.414;2023-05-10T15:59:54;7.70;;;1.33;;
47617;SDS011;33336;36.728;-4.414;2023-05-10T16:04:59;11.05;;;1.73;;
47617;SDS011;33336;36.728;-4.414;2023-05-10T16:10:03;12.38;;;2.45;;
47617;SDS011;33336;36.728;-4.414;2023-05-10T16:15:07;8.02;;;1.50;;
47617;SDS011;33336;36.728;-4.414;2023-05-10T16:20:13;6.05;;;1.67;;
47617;SDS011;33336;36.728;-4.414;2023-05-10T16:25:16;8.07;;;2.00;;
47617;SDS011;33336;36.728;-4.414;2023-05-10T16:30:20;5.57;;;1.70;;
47617;SDS011;33336;36.728;-4.414;2023-05-10T16:40:30;7.20;;;1.67;;
47617;SDS011;33336;36.728;-4.414;2023-05-10T16:45:33;3.07;;;1.20;;
47617;SDS011;33336;36.728;-4.414;2023-05-10T16:50:39;5.07;;;1.48;;
47617;SDS011;33336;36.728;-4.414;2023-05-10T16:55:45;6.60;;;1.80;;
47617;SDS011;33336;36.728;-4.414;2023-05-10T17:00:49;6.93;;;1.70;;
47617;SDS011;33336;36.728;-4.414;2023-05-10T17:05:53;6.53;;;1.65;;
47617;SDS011;33336;36.728;-4.414;2023-05-10T17:10:59;4.60;;;1.50;;
47617;SDS011;33336;36.728;-4.414;2023-05-10T17:16:02;7.65;;;1.88;;
47617;SDS011;33336;36.728;-4.414;2023-05-10T17:21:08;5.85;;;1.70;;
47617;SDS011;33336;36.728;-4.414;2023-05-10T17:26:11;7.05;;;1.27;;
47617;SDS011;33336;36.728;-4.414;2023-05-10T17:31:15;6.93;;;1.70;;
47617;SDS011;33336;36.728;-4.414;2023-05-10T17:36:20;8.45;;;2.15;;
47617;SDS011;33336;36.728;-4.414;2023-05-10T17:41:24;7.45;;;1.67;;
47617;SDS011;33336;36.728;-4.414;2023-05-10T17:46:27;4.72;;;1.98;;
47617;SDS011;33336;36.728;-4.414;2023-05-10T17:51:32;7.50;;;2.13;;
47617;SDS011;33336;36.728;-4.414;2023-05-10T17:56:35;12.30;;;2.10;;
47617;SDS011;33336;36.728;-4.414;2023-05-10T18:01:39;7.07;;;1.63;;
47617;SDS011;33336;36.728;-4.414;2023-05-10T18:06:44;14.18;;;3.50;;
47617;SDS011;33336;36.728;-4.414;2023-05-10T18:11:48;6.03;;;2.15;;
47617;SDS011;33336;36.728;-4.414;2023-05-10T18:16:50;10.32;;;1.90;;
47617;SDS011;33336;36.728;-4.414;2023-05-10T18:21:56;6.47;;;2.03;;
47617;SDS011;33336;36.728;-4.414;2023-05-10T18:26:58;8.53;;;2.20;;
47617;SDS011;33336;36.728;-4.414;2023-05-10T18:32:02;8.20;;;2.00;;
47617;SDS011;33336;36.728;-4.414;2023-05-10T18:37:07;5.93;;;2.03;;
47617;SDS011;33336;36.728;-4.414;2023-05-10T18:42:11;15.45;;;3.75;;
47617;SDS011;33336;36.728;-4.414;2023-05-10T18:47:14;19.17;;;2.92;;
47617;SDS011;33336;36.728;-4.414;2023-05-10T18:52:20;11.52;;;2.10;;
47617;SDS011;33336;36.728;-4.414;2023-05-10T19:02:27;6.20;;;2.30;;
47617;SDS011;33336;36.728;-4.414;2023-05-10T19:07:31;7.80;;;2.13;;
47617;SDS011;33336;36.728;-4.414;2023-05-10T19:12:36;6.28;;;2.30;;
47617;SDS011;33336;36.728;-4.414;2023-05-10T19:22:46;4.32;;;1.98;;
47617;SDS011;33336;36.728;-4.414;2023-05-10T19:27:49;6.57;;;2.33;;
47617;SDS011;33336;36.728;-4.414;2023-05-10T19:32:54;6.47;;;2.08;;
47617;SDS011;33336;36.728;-4.414;2023-05-10T19:37:58;13.35;;;2.17;;
47617;SDS011;33336;36.728;-4.414;2023-05-10T19:43:02;3.85;;;1.65;;
47617;SDS011;33336;36.728;-4.414;2023-05-10T19:48:07;7.20;;;2.22;;
47617;SDS011;33336;36.728;-4.414;2023-05-10T19:53:11;10.63;;;2.65;;
47617;SDS011;33336;36.728;-4.414;2023-05-10T19:58:14;10.65;;;3.17;;
47617;SDS011;33336;36.728;-4.414;2023-05-10T20:03:18;8.43;;;2.17;;
47617;SDS011;33336;36.728;-4.414;2023-05-10T20:08:23;5.28;;;2.33;;
47617;SDS011;33336;36.728;-4.414;2023-05-10T20:13:27;8.60;;;2.20;;
47617;SDS011;33336;36.728;-4.414;2023-05-10T20:18:29;10.93;;;2.97;;
47617;SDS011;33336;36.728;-4.414;2023-05-10T20:23:35;7.55;;;2.33;;
47617;SDS011;33336;36.728;-4.414;2023-05-10T20:28:38;13.52;;;3.45;;
47617;SDS011;33336;36.728;-4.414;2023-05-10T20:33:43;7.82;;;2.40;;
47617;SDS011;33336;36.728;-4.414;2023-05-10T20:38:47;11.45;;;2.55;;
47617;SDS011;33336;36.728;-4.414;2023-05-10T20:43:51;10.57;;;2.80;;
47617;SDS011;33336;36.728;-4.414;2023-05-10T20:48:53;8.88;;;2.35;;
47617;SDS011;33336;36.728;-4.414;2023-05-10T20:53:59;7.35;;;2.42;;
47617;SDS011;33336;36.728;-4.414;2023-05-10T20:59:03;10.55;;;2.70;;
47617;SDS011;33336;36.728;-4.414;2023-05-10T21:04:07;9.25;;;2.97;;
47617;SDS011;33336;36.728;-4.414;2023-05-10T21:09:12;8.75;;;2.65;;
47617;SDS011;33336;36.728;-4.414;2023-05-10T21:14:16;10.43;;;3.17;;
47617;SDS011;33336;36.728;-4.414;2023-05-10T21:19:19;7.75;;;2.90;;
47617;SDS011;33336;36.728;-4.414;2023-05-10T21:24:24;9.68;;;2.78;;
47617;SDS011;33336;36.728;-4.414;2023-05-10T21:29:27;12.38;;;3.92;;
47617;SDS011;33336;36.728;-4.414;2023-05-10T21:34:32;7.35;;;3.10;;
47617;SDS011;33336;36.728;-4.414;2023-05-10T21:39:36;10.75;;;3.28;;
47617;SDS011;33336;36.728;-4.414;2023-05-10T21:44:40;9.55;;;2.90;;
47617;SDS011;33336;36.728;-4.414;2023-05-10T21:49:43;8.73;;;3.70;;
47617;SDS011;33336;36.728;-4.414;2023-05-10T21:54:49;9.18;;;3.38;;
47617;SDS011;33336;36.728;-4.414;2023-05-10T21:59:51;7.65;;;2.53;;
47617;SDS011;33336;36.728;-4.414;2023-05-10T22:04:55;11.07;;;2.95;;
47617;SDS011;33336;36.728;-4.414;2023-05-10T22:09:59;10.75;;;2.78;;
47617;SDS011;33336;36.728;-4.414;2023-05-10T22:15:03;7.95;;;2.78;;
47617;SDS011;33336;36.728;-4.414;2023-05-10T22:20:06;9.05;;;2.90;;
47617;SDS011;33336;36.728;-4.414;2023-05-10T22:25:13;9.38;;;2.45;;
47617;SDS011;33336;36.728;-4.414;2023-05-10T22:30:16;13.95;;;3.60;;
47617;SDS011;33336;36.728;-4.414;2023-05-10T22:35:20;13.85;;;2.78;;
47617;SDS011;33336;36.728;-4.414;2023-05-10T22:40:24;7.95;;;2.78;;
47617;SDS011;33336;36.728;-4.414;2023-05-10T22:45:28;11.10;;;3.05;;
47617;SDS011;33336;36.728;-4.414;2023-05-10T22:50:31;8.30;;;2.67;;
47617;SDS011;33336;36.728;-4.414;2023-05-10T22:55:36;10.60;;;2.92;;
47617;SDS011;33336;36.728;-4.414;2023-05-10T23:00:39;7.78;;;2.40;;
47617;SDS011;33336;36.728;-4.414;2023-05-10T23:05:43;10.07;;;2.83;;
47617;SDS011;33336;36.728;-4.414;2023-05-10T23:10:47;11.10;;;3.00;;
47617;SDS011;33336;36.728;-4.414;2023-05-10T23:15:51;13.65;;;2.65;;
47617;SDS011;33336;36.728;-4.414;2023-05-10T23:20:53;11.27;;;3.35;;
47617;SDS011;33336;36.728;-4.414;2023-05-10T23:25:59;8.40;;;3.25;;
47617;SDS011;33336;36.728;-4.414;2023-05-10T23:31:03;10.90;;;2.88;;
47617;SDS011;33336;36.728;-4.414;2023-05-10T23:36:06;9.65;;;2.70;;
47617;SDS011;33336;36.728;-4.414;2023-05-10T23:41:10;10.18;;;2.45;;
47617;SDS011;33336;36.728;-4.414;2023-05-10T23:46:15;9.93;;;2.58;;
47617;SDS011;33336;36.728;-4.414;2023-05-10T23:51:17;6.80;;;2.80;;
47617;SDS011;33336;36.728;-4.414;2023-05-10T23:56:23;16.20;;;3.03;;
